sensor_id;sensor_type;location;lat;lon;timestamp;P1;durP1;ratioP1;P2;durP2;ratioP2
80981;SDS011;70440;53.064;8.926;2023-09-07T00:00:19;0.85;;;0.30;;
80981;SDS011;70440;53.064;8.926;2023-09-07T00:02:44;0.20;;;0.20;;
80981;SDS011;70440;53.064;8.926;2023-09-07T00:05:10;0.15;;;0.10;;
80981;SDS011;70440;53.064;8.926;2023-09-07T00:07:35;0.30;;;0.20;;
80981;SDS011;70440;53.064;8.926;2023-09-07T00:10:01;0.25;;;0.25;;
80981;SDS011;70440;53.064;8.926;2023-09-07T00:12:26;0.30;;;0.30;;
80981;SDS011;70440;53.064;8.926;2023-09-07T00:14:52;0.25;;;0.25;;
80981;SDS011;70440;53.064;8.926;2023-09-07T00:17:19;0.20;;;0.20;;
80981;SDS011;70440;53.064;8.926;2023-09-07T00:19:44;0.10;;;0.10;;
80981;SDS011;70440;53.064;8.926;2023-09-07T00:22:11;0.35;;;0.22;;
80981;SDS011;70440;53.064;8.926;2023-09-07T00:24:37;0.30;;;0.22;;
80981;SDS011;70440;53.064;8.926;2023-09-07T00:27:02;0.28;;;0.20;;
80981;SDS011;70440;53.064;8.926;2023-09-07T00:29:30;0.28;;;0.28;;
80981;SDS011;70440;53.064;8.926;2023-09-07T00:31:56;0.30;;;0.30;;
80981;SDS011;70440;53.064;8.926;2023-09-07T00:34:21;0.20;;;0.20;;
80981;SDS011;70440;53.064;8.926;2023-09-07T00:36:46;0.20;;;0.20;;
80981;SDS011;70440;53.064;8.926;2023-09-07T00:39:12;0.22;;;0.22;;
80981;SDS011;70440;53.064;8.926;2023-09-07T00:41:37;0.22;;;0.22;;
80981;SDS011;70440;53.064;8.926;2023-09-07T00:44:03;0.20;;;0.20;;
80981;SDS011;70440;53.064;8.926;2023-09-07T00:46:28;0.22;;;0.22;;
80981;SDS011;70440;53.064;8.926;2023-09-07T00:48:54;0.40;;;0.32;;
80981;SDS011;70440;53.064;8.926;2023-09-07T00:51:20;0.30;;;0.30;;
80981;SDS011;70440;53.064;8.926;2023-09-07T00:53:45;0.10;;;0.10;;
80981;SDS011;70440;53.064;8.926;2023-09-07T00:56:10;0.30;;;0.30;;
80981;SDS011;70440;53.064;8.926;2023-09-07T00:58:36;0.20;;;0.20;;
80981;SDS011;70440;53.064;8.926;2023-09-07T01:01:02;0.20;;;0.20;;
80981;SDS011;70440;53.064;8.926;2023-09-07T01:03:28;0.30;;;0.30;;
80981;SDS011;70440;53.064;8.926;2023-09-07T01:08:46;0.10;;;0.10;;
80981;SDS011;70440;53.064;8.926;2023-09-07T01:11:16;0.20;;;0.20;;
80981;SDS011;70440;53.064;8.926;2023-09-07T01:13:43;0.15;;;0.15;;
80981;SDS011;70440;53.064;8.926;2023-09-07T01:16:09;0.20;;;0.20;;
80981;SDS011;70440;53.064;8.926;2023-09-07T01:18:35;0.20;;;0.20;;
80981;SDS011;70440;53.064;8.926;2023-09-07T01:21:03;0.20;;;0.20;;
80981;SDS011;70440;53.064;8.926;2023-09-07T01:23:30;0.22;;;0.20;;
80981;SDS011;70440;53.064;8.926;2023-09-07T01:25:56;0.25;;;0.20;;
80981;SDS011;70440;53.064;8.926;2023-09-07T01:28:21;0.10;;;0.10;;
80981;SDS011;70440;53.064;8.926;2023-09-07T01:30:46;0.30;;;0.30;;
80981;SDS011;70440;53.064;8.926;2023-09-07T01:33:12;0.30;;;0.30;;
80981;SDS011;70440;53.064;8.926;2023-09-07T01:38:04;0.20;;;0.20;;
80981;SDS011;70440;53.064;8.926;2023-09-07T01:40:30;0.30;;;0.30;;
80981;SDS011;70440;53.064;8.926;2023-09-07T01:42:58;0.28;;;0.28;;
80981;SDS011;70440;53.064;8.926;2023-09-07T01:45:23;0.30;;;0.30;;
80981;SDS011;70440;53.064;8.926;2023-09-07T01:47:49;0.22;;;0.20;;
80981;SDS011;70440;53.064;8.926;2023-09-07T01:50:14;0.30;;;0.28;;
80981;SDS011;70440;53.064;8.926;2023-09-07T01:52:41;0.50;;;0.28;;
80981;SDS011;70440;53.064;8.926;2023-09-07T01:55:07;0.20;;;0.20;;
80981;SDS011;70440;53.064;8.926;2023-09-07T01:57:32;1.20;;;0.30;;
80981;SDS011;70440;53.064;8.926;2023-09-07T01:59:57;0.20;;;0.20;;
80981;SDS011;70440;53.064;8.926;2023-09-07T02:02:23;0.40;;;0.40;;
80981;SDS011;70440;53.064;8.926;2023-09-07T02:04:48;0.40;;;0.30;;
80981;SDS011;70440;53.064;8.926;2023-09-07T02:07:14;0.20;;;0.20;;
80981;SDS011;70440;53.064;8.926;2023-09-07T02:09:39;1.38;;;0.40;;
80981;SDS011;70440;53.064;8.926;2023-09-07T02:12:05;0.20;;;0.20;;
80981;SDS011;70440;53.064;8.926;2023-09-07T02:14:31;0.20;;;0.20;;
80981;SDS011;70440;53.064;8.926;2023-09-07T02:17:05;0.20;;;0.20;;
80981;SDS011;70440;53.064;8.926;2023-09-07T02:19:34;0.30;;;0.30;;
80981;SDS011;70440;53.064;8.926;2023-09-07T02:22:00;0.30;;;0.30;;
80981;SDS011;70440;53.064;8.926;2023-09-07T02:24:25;0.30;;;0.30;;
80981;SDS011;70440;53.064;8.926;2023-09-07T02:26:53;0.28;;;0.28;;
80981;SDS011;70440;53.064;8.926;2023-09-07T02:29:19;0.20;;;0.20;;
80981;SDS011;70440;53.064;8.926;2023-09-07T02:31:44;0.20;;;0.20;;
80981;SDS011;70440;53.064;8.926;2023-09-07T02:34:12;0.38;;;0.30;;
80981;SDS011;70440;53.064;8.926;2023-09-07T02:36:37;0.30;;;0.30;;
80981;SDS011;70440;53.064;8.926;2023-09-07T02:39:03;0.43;;;0.22;;
80981;SDS011;70440;53.064;8.926;2023-09-07T02:41:28;0.57;;;0.40;;
80981;SDS011;70440;53.064;8.926;2023-09-07T02:43:55;0.45;;;0.38;;
80981;SDS011;70440;53.064;8.926;2023-09-07T02:46:21;0.40;;;0.30;;
80981;SDS011;70440;53.064;8.926;2023-09-07T02:48:46;0.30;;;0.30;;
80981;SDS011;70440;53.064;8.926;2023-09-07T02:51:11;0.20;;;0.20;;
80981;SDS011;70440;53.064;8.926;2023-09-07T02:53:37;0.30;;;0.25;;
80981;SDS011;70440;53.064;8.926;2023-09-07T02:56:08;0.30;;;0.30;;
80981;SDS011;70440;53.064;8.926;2023-09-07T02:58:35;0.20;;;0.20;;
80981;SDS011;70440;53.064;8.926;2023-09-07T03:01:05;0.20;;;0.20;;
80981;SDS011;70440;53.064;8.926;2023-09-07T03:03:37;0.30;;;0.30;;
80981;SDS011;70440;53.064;8.926;2023-09-07T03:06:12;0.75;;;0.38;;
80981;SDS011;70440;53.064;8.926;2023-09-07T03:08:41;0.38;;;0.32;;
80981;SDS011;70440;53.064;8.926;2023-09-07T03:11:11;0.40;;;0.40;;
80981;SDS011;70440;53.064;8.926;2023-09-07T03:13:36;0.38;;;0.35;;
80981;SDS011;70440;53.064;8.926;2023-09-07T03:16:05;0.50;;;0.40;;
80981;SDS011;70440;53.064;8.926;2023-09-07T03:20:58;0.60;;;0.60;;
80981;SDS011;70440;53.064;8.926;2023-09-07T03:23:24;0.32;;;0.30;;
80981;SDS011;70440;53.064;8.926;2023-09-07T03:25:49;0.50;;;0.40;;
80981;SDS011;70440;53.064;8.926;2023-09-07T03:28:15;0.20;;;0.20;;
80981;SDS011;70440;53.064;8.926;2023-09-07T03:30:43;0.40;;;0.40;;
80981;SDS011;70440;53.064;8.926;2023-09-07T03:33:08;0.20;;;0.20;;
80981;SDS011;70440;53.064;8.926;2023-09-07T03:35:34;0.35;;;0.35;;
80981;SDS011;70440;53.064;8.926;2023-09-07T03:37:59;0.30;;;0.30;;
80981;SDS011;70440;53.064;8.926;2023-09-07T03:40:24;0.35;;;0.30;;
80981;SDS011;70440;53.064;8.926;2023-09-07T03:42:50;0.30;;;0.30;;
80981;SDS011;70440;53.064;8.926;2023-09-07T03:45:15;0.32;;;0.32;;
80981;SDS011;70440;53.064;8.926;2023-09-07T03:47:41;0.30;;;0.30;;
80981;SDS011;70440;53.064;8.926;2023-09-07T03:50:06;0.40;;;0.30;;
80981;SDS011;70440;53.064;8.926;2023-09-07T03:52:32;0.40;;;0.40;;
80981;SDS011;70440;53.064;8.926;2023-09-07T03:54:57;0.40;;;0.32;;
80981;SDS011;70440;53.064;8.926;2023-09-07T03:57:24;0.52;;;0.40;;
80981;SDS011;70440;53.064;8.926;2023-09-07T03:59:50;0.30;;;0.30;;
80981;SDS011;70440;53.064;8.926;2023-09-07T04:02:15;0.40;;;0.40;;
80981;SDS011;70440;53.064;8.926;2023-09-07T04:04:42;0.25;;;0.25;;
80981;SDS011;70440;53.064;8.926;2023-09-07T04:07:14;0.40;;;0.40;;
80981;SDS011;70440;53.064;8.926;2023-09-07T04:09:45;0.60;;;0.50;;
80981;SDS011;70440;53.064;8.926;2023-09-07T04:12:17;0.20;;;0.20;;
80981;SDS011;70440;53.064;8.926;2023-09-07T04:14:42;0.20;;;0.20;;
80981;SDS011;70440;53.064;8.926;2023-09-07T04:17:14;0.52;;;0.30;;
80981;SDS011;70440;53.064;8.926;2023-09-07T04:19:39;0.30;;;0.30;;
80981;SDS011;70440;53.064;8.926;2023-09-07T04:22:05;0.30;;;0.30;;
80981;SDS011;70440;53.064;8.926;2023-09-07T04:24:30;0.40;;;0.40;;
80981;SDS011;70440;53.064;8.926;2023-09-07T04:26:59;0.55;;;0.55;;
80981;SDS011;70440;53.064;8.926;2023-09-07T04:29:28;0.30;;;0.30;;
80981;SDS011;70440;53.064;8.926;2023-09-07T04:32:00;0.70;;;0.40;;
80981;SDS011;70440;53.064;8.926;2023-09-07T04:34:25;0.20;;;0.20;;
80981;SDS011;70440;53.064;8.926;2023-09-07T04:36:51;0.30;;;0.30;;
80981;SDS011;70440;53.064;8.926;2023-09-07T04:39:16;0.38;;;0.38;;
80981;SDS011;70440;53.064;8.926;2023-09-07T04:41:41;0.30;;;0.30;;
80981;SDS011;70440;53.064;8.926;2023-09-07T04:44:13;0.50;;;0.50;;
80981;SDS011;70440;53.064;8.926;2023-09-07T04:46:48;0.35;;;0.35;;
80981;SDS011;70440;53.064;8.926;2023-09-07T04:49:13;0.35;;;0.30;;
80981;SDS011;70440;53.064;8.926;2023-09-07T04:51:38;0.50;;;0.45;;
80981;SDS011;70440;53.064;8.926;2023-09-07T04:54:04;1.08;;;0.43;;
80981;SDS011;70440;53.064;8.926;2023-09-07T04:56:32;0.30;;;0.30;;
80981;SDS011;70440;53.064;8.926;2023-09-07T04:58:57;0.35;;;0.35;;
80981;SDS011;70440;53.064;8.926;2023-09-07T05:01:23;0.40;;;0.40;;
80981;SDS011;70440;53.064;8.926;2023-09-07T05:03:49;0.30;;;0.30;;
80981;SDS011;70440;53.064;8.926;2023-09-07T05:06:18;0.25;;;0.25;;
80981;SDS011;70440;53.064;8.926;2023-09-07T05:08:44;0.40;;;0.40;;
80981;SDS011;70440;53.064;8.926;2023-09-07T05:11:09;0.35;;;0.28;;
80981;SDS011;70440;53.064;8.926;2023-09-07T05:13:35;0.43;;;0.43;;
80981;SDS011;70440;53.064;8.926;2023-09-07T05:16:00;0.28;;;0.28;;
80981;SDS011;70440;53.064;8.926;2023-09-07T05:18:26;0.45;;;0.43;;
80981;SDS011;70440;53.064;8.926;2023-09-07T05:20:54;0.73;;;0.47;;
80981;SDS011;70440;53.064;8.926;2023-09-07T05:23:26;0.35;;;0.35;;
80981;SDS011;70440;53.064;8.926;2023-09-07T05:25:52;0.30;;;0.30;;
80981;SDS011;70440;53.064;8.926;2023-09-07T05:28:19;0.65;;;0.50;;
80981;SDS011;70440;53.064;8.926;2023-09-07T05:30:45;0.50;;;0.50;;
80981;SDS011;70440;53.064;8.926;2023-09-07T05:33:11;0.50;;;0.50;;
80981;SDS011;70440;53.064;8.926;2023-09-07T05:35:37;0.57;;;0.50;;
80981;SDS011;70440;53.064;8.926;2023-09-07T05:38:05;0.77;;;0.50;;
80981;SDS011;70440;53.064;8.926;2023-09-07T05:43:00;0.50;;;0.43;;
80981;SDS011;70440;53.064;8.926;2023-09-07T05:45:25;0.32;;;0.32;;
80981;SDS011;70440;53.064;8.926;2023-09-07T05:47:50;0.60;;;0.50;;
80981;SDS011;70440;53.064;8.926;2023-09-07T05:50:16;0.38;;;0.38;;
80981;SDS011;70440;53.064;8.926;2023-09-07T05:52:41;0.40;;;0.40;;
80981;SDS011;70440;53.064;8.926;2023-09-07T05:55:06;1.15;;;0.40;;
80981;SDS011;70440;53.064;8.926;2023-09-07T05:57:38;0.35;;;0.35;;
80981;SDS011;70440;53.064;8.926;2023-09-07T06:00:04;0.30;;;0.30;;
80981;SDS011;70440;53.064;8.926;2023-09-07T06:02:30;0.60;;;0.40;;
80981;SDS011;70440;53.064;8.926;2023-09-07T06:05:07;0.60;;;0.50;;
80981;SDS011;70440;53.064;8.926;2023-09-07T06:07:32;0.57;;;0.50;;
80981;SDS011;70440;53.064;8.926;2023-09-07T06:09:58;0.38;;;0.38;;
80981;SDS011;70440;53.064;8.926;2023-09-07T06:12:24;0.50;;;0.50;;
80981;SDS011;70440;53.064;8.926;2023-09-07T06:14:49;0.60;;;0.57;;
80981;SDS011;70440;53.064;8.926;2023-09-07T06:17:14;0.65;;;0.50;;
80981;SDS011;70440;53.064;8.926;2023-09-07T06:19:40;0.50;;;0.50;;
80981;SDS011;70440;53.064;8.926;2023-09-07T06:22:05;0.65;;;0.60;;
80981;SDS011;70440;53.064;8.926;2023-09-07T06:24:30;0.60;;;0.60;;
80981;SDS011;70440;53.064;8.926;2023-09-07T06:26:55;0.40;;;0.40;;
80981;SDS011;70440;53.064;8.926;2023-09-07T06:29:24;0.40;;;0.40;;
80981;SDS011;70440;53.064;8.926;2023-09-07T06:31:52;0.68;;;0.60;;
80981;SDS011;70440;53.064;8.926;2023-09-07T06:34:17;0.55;;;0.50;;
80981;SDS011;70440;53.064;8.926;2023-09-07T06:36:46;0.50;;;0.30;;
80981;SDS011;70440;53.064;8.926;2023-09-07T06:39:17;0.60;;;0.50;;
80981;SDS011;70440;53.064;8.926;2023-09-07T06:41:45;0.73;;;0.60;;
80981;SDS011;70440;53.064;8.926;2023-09-07T06:44:10;0.55;;;0.45;;
80981;SDS011;70440;53.064;8.926;2023-09-07T06:46:48;0.30;;;0.30;;
80981;SDS011;70440;53.064;8.926;2023-09-07T06:49:14;0.40;;;0.40;;
80981;SDS011;70440;53.064;8.926;2023-09-07T06:51:42;0.45;;;0.45;;
80981;SDS011;70440;53.064;8.926;2023-09-07T06:54:13;0.60;;;0.60;;
80981;SDS011;70440;53.064;8.926;2023-09-07T06:56:42;0.35;;;0.30;;
80981;SDS011;70440;53.064;8.926;2023-09-07T06:59:10;0.50;;;0.50;;
80981;SDS011;70440;53.064;8.926;2023-09-07T07:01:35;0.40;;;0.40;;
80981;SDS011;70440;53.064;8.926;2023-09-07T07:04:04;0.60;;;0.60;;
80981;SDS011;70440;53.064;8.926;2023-09-07T07:06:29;0.50;;;0.50;;
80981;SDS011;70440;53.064;8.926;2023-09-07T07:09:07;0.50;;;0.50;;
80981;SDS011;70440;53.064;8.926;2023-09-07T07:11:39;0.43;;;0.43;;
80981;SDS011;70440;53.064;8.926;2023-09-07T07:14:04;0.50;;;0.50;;
80981;SDS011;70440;53.064;8.926;2023-09-07T07:16:45;0.50;;;0.50;;
80981;SDS011;70440;53.064;8.926;2023-09-07T07:19:13;0.50;;;0.40;;
80981;SDS011;70440;53.064;8.926;2023-09-07T07:21:44;0.73;;;0.45;;
80981;SDS011;70440;53.064;8.926;2023-09-07T07:24:13;0.52;;;0.40;;
80981;SDS011;70440;53.064;8.926;2023-09-07T07:26:41;0.50;;;0.50;;
80981;SDS011;70440;53.064;8.926;2023-09-07T07:29:13;0.55;;;0.43;;
80981;SDS011;70440;53.064;8.926;2023-09-07T07:31:41;0.47;;;0.45;;
80981;SDS011;70440;53.064;8.926;2023-09-07T07:34:19;0.50;;;0.50;;
80981;SDS011;70440;53.064;8.926;2023-09-07T07:36:44;0.52;;;0.47;;
80981;SDS011;70440;53.064;8.926;2023-09-07T07:39:09;0.43;;;0.35;;
80981;SDS011;70440;53.064;8.926;2023-09-07T07:41:35;0.40;;;0.40;;
80981;SDS011;70440;53.064;8.926;2023-09-07T07:44:01;0.50;;;0.50;;
80981;SDS011;70440;53.064;8.926;2023-09-07T07:46:32;0.85;;;0.45;;
80981;SDS011;70440;53.064;8.926;2023-09-07T07:49:03;0.47;;;0.47;;
80981;SDS011;70440;53.064;8.926;2023-09-07T07:51:29;1.10;;;0.70;;
80981;SDS011;70440;53.064;8.926;2023-09-07T07:53:54;0.47;;;0.47;;
80981;SDS011;70440;53.064;8.926;2023-09-07T07:56:21;0.43;;;0.43;;
80981;SDS011;70440;53.064;8.926;2023-09-07T07:58:46;0.82;;;0.70;;
80981;SDS011;70440;53.064;8.926;2023-09-07T08:01:18;0.43;;;0.43;;
80981;SDS011;70440;53.064;8.926;2023-09-07T08:03:45;0.57;;;0.47;;
80981;SDS011;70440;53.064;8.926;2023-09-07T08:06:10;0.52;;;0.50;;
80981;SDS011;70440;53.064;8.926;2023-09-07T08:08:36;0.40;;;0.40;;
80981;SDS011;70440;53.064;8.926;2023-09-07T08:11:08;0.60;;;0.60;;
80981;SDS011;70440;53.064;8.926;2023-09-07T08:13:40;0.80;;;0.80;;
80981;SDS011;70440;53.064;8.926;2023-09-07T08:16:15;1.02;;;0.47;;
80981;SDS011;70440;53.064;8.926;2023-09-07T08:18:40;0.50;;;0.50;;
80981;SDS011;70440;53.064;8.926;2023-09-07T08:21:06;0.55;;;0.55;;
80981;SDS011;70440;53.064;8.926;2023-09-07T08:23:34;1.00;;;0.40;;
80981;SDS011;70440;53.064;8.926;2023-09-07T08:28:34;0.50;;;0.50;;
80981;SDS011;70440;53.064;8.926;2023-09-07T08:31:03;0.57;;;0.55;;
80981;SDS011;70440;53.064;8.926;2023-09-07T08:33:38;0.75;;;0.75;;
80981;SDS011;70440;53.064;8.926;2023-09-07T08:36:05;0.60;;;0.45;;
80981;SDS011;70440;53.064;8.926;2023-09-07T08:38:31;0.65;;;0.50;;
80981;SDS011;70440;53.064;8.926;2023-09-07T08:41:02;0.45;;;0.45;;
80981;SDS011;70440;53.064;8.926;2023-09-07T08:43:44;0.60;;;0.60;;
80981;SDS011;70440;53.064;8.926;2023-09-07T08:46:15;0.73;;;0.68;;
80981;SDS011;70440;53.064;8.926;2023-09-07T08:48:42;1.38;;;0.60;;
80981;SDS011;70440;53.064;8.926;2023-09-07T08:51:24;0.93;;;0.60;;
80981;SDS011;70440;53.064;8.926;2023-09-07T08:53:52;0.80;;;0.68;;
80981;SDS011;70440;53.064;8.926;2023-09-07T08:56:18;0.50;;;0.50;;
80981;SDS011;70440;53.064;8.926;2023-09-07T08:58:44;0.40;;;0.40;;
80981;SDS011;70440;53.064;8.926;2023-09-07T09:01:09;0.77;;;0.60;;
80981;SDS011;70440;53.064;8.926;2023-09-07T09:03:41;0.63;;;0.63;;
80981;SDS011;70440;53.064;8.926;2023-09-07T09:06:14;0.43;;;0.43;;
80981;SDS011;70440;53.064;8.926;2023-09-07T09:11:15;0.63;;;0.55;;
80981;SDS011;70440;53.064;8.926;2023-09-07T09:13:41;0.75;;;0.60;;
80981;SDS011;70440;53.064;8.926;2023-09-07T09:16:13;0.88;;;0.60;;
80981;SDS011;70440;53.064;8.926;2023-09-07T09:18:57;0.82;;;0.73;;
80981;SDS011;70440;53.064;8.926;2023-09-07T09:21:26;0.60;;;0.60;;
80981;SDS011;70440;53.064;8.926;2023-09-07T09:23:58;0.60;;;0.60;;
80981;SDS011;70440;53.064;8.926;2023-09-07T09:26:28;0.60;;;0.60;;
80981;SDS011;70440;53.064;8.926;2023-09-07T09:28:55;0.70;;;0.70;;
80981;SDS011;70440;53.064;8.926;2023-09-07T09:31:24;0.85;;;0.85;;
80981;SDS011;70440;53.064;8.926;2023-09-07T09:33:55;0.60;;;0.60;;
80981;SDS011;70440;53.064;8.926;2023-09-07T09:36:21;1.02;;;0.75;;
80981;SDS011;70440;53.064;8.926;2023-09-07T09:38:50;0.80;;;0.80;;
80981;SDS011;70440;53.064;8.926;2023-09-07T09:41:21;0.50;;;0.50;;
80981;SDS011;70440;53.064;8.926;2023-09-07T09:43:46;0.50;;;0.50;;
80981;SDS011;70440;53.064;8.926;2023-09-07T09:46:23;0.60;;;0.60;;
80981;SDS011;70440;53.064;8.926;2023-09-07T09:48:49;1.55;;;0.70;;
80981;SDS011;70440;53.064;8.926;2023-09-07T09:51:15;0.75;;;0.60;;
80981;SDS011;70440;53.064;8.926;2023-09-07T09:53:41;0.60;;;0.50;;
80981;SDS011;70440;53.064;8.926;2023-09-07T09:56:13;0.60;;;0.60;;
80981;SDS011;70440;53.064;8.926;2023-09-07T09:58:39;0.40;;;0.40;;
80981;SDS011;70440;53.064;8.926;2023-09-07T10:01:10;1.17;;;0.60;;
80981;SDS011;70440;53.064;8.926;2023-09-07T10:03:40;0.40;;;0.40;;
80981;SDS011;70440;53.064;8.926;2023-09-07T10:08:59;0.50;;;0.50;;
80981;SDS011;70440;53.064;8.926;2023-09-07T10:11:32;0.50;;;0.50;;
80981;SDS011;70440;53.064;8.926;2023-09-07T10:13:59;0.60;;;0.60;;
80981;SDS011;70440;53.064;8.926;2023-09-07T10:16:25;0.52;;;0.52;;
80981;SDS011;70440;53.064;8.926;2023-09-07T10:18:52;0.98;;;0.75;;
80981;SDS011;70440;53.064;8.926;2023-09-07T10:21:27;0.73;;;0.50;;
80981;SDS011;70440;53.064;8.926;2023-09-07T10:23:55;0.60;;;0.60;;
80981;SDS011;70440;53.064;8.926;2023-09-07T10:26:20;0.50;;;0.50;;
80981;SDS011;70440;53.064;8.926;2023-09-07T10:28:46;0.40;;;0.40;;
80981;SDS011;70440;53.064;8.926;2023-09-07T10:31:16;0.57;;;0.57;;
80981;SDS011;70440;53.064;8.926;2023-09-07T10:33:42;0.60;;;0.60;;
80981;SDS011;70440;53.064;8.926;2023-09-07T10:36:21;0.85;;;0.45;;
80981;SDS011;70440;53.064;8.926;2023-09-07T10:38:47;0.60;;;0.50;;
80981;SDS011;70440;53.064;8.926;2023-09-07T10:41:19;0.50;;;0.50;;
80981;SDS011;70440;53.064;8.926;2023-09-07T10:43:48;0.57;;;0.57;;
80981;SDS011;70440;53.064;8.926;2023-09-07T10:46:13;0.60;;;0.50;;
80981;SDS011;70440;53.064;8.926;2023-09-07T10:48:38;0.50;;;0.50;;
80981;SDS011;70440;53.064;8.926;2023-09-07T10:51:07;0.75;;;0.50;;
80981;SDS011;70440;53.064;8.926;2023-09-07T10:53:32;0.57;;;0.57;;
80981;SDS011;70440;53.064;8.926;2023-09-07T10:56:07;0.68;;;0.57;;
80981;SDS011;70440;53.064;8.926;2023-09-07T10:58:33;0.65;;;0.40;;
80981;SDS011;70440;53.064;8.926;2023-09-07T11:01:02;0.45;;;0.45;;
80981;SDS011;70440;53.064;8.926;2023-09-07T11:03:28;0.43;;;0.40;;
80981;SDS011;70440;53.064;8.926;2023-09-07T11:06:04;0.63;;;0.38;;
80981;SDS011;70440;53.064;8.926;2023-09-07T11:08:36;0.40;;;0.40;;
80981;SDS011;70440;53.064;8.926;2023-09-07T11:11:02;0.55;;;0.55;;
80981;SDS011;70440;53.064;8.926;2023-09-07T11:13:27;0.50;;;0.50;;
80981;SDS011;70440;53.064;8.926;2023-09-07T11:15:53;0.57;;;0.45;;
80981;SDS011;70440;53.064;8.926;2023-09-07T11:18:20;0.52;;;0.52;;
80981;SDS011;70440;53.064;8.926;2023-09-07T11:20:56;0.40;;;0.40;;
80981;SDS011;70440;53.064;8.926;2023-09-07T11:23:21;0.50;;;0.50;;
80981;SDS011;70440;53.064;8.926;2023-09-07T11:25:50;0.55;;;0.55;;
80981;SDS011;70440;53.064;8.926;2023-09-07T11:28:19;0.50;;;0.40;;
80981;SDS011;70440;53.064;8.926;2023-09-07T11:30:54;0.60;;;0.50;;
80981;SDS011;70440;53.064;8.926;2023-09-07T11:33:20;0.73;;;0.50;;
80981;SDS011;70440;53.064;8.926;2023-09-07T11:35:49;0.60;;;0.60;;
80981;SDS011;70440;53.064;8.926;2023-09-07T11:38:16;0.40;;;0.40;;
80981;SDS011;70440;53.064;8.926;2023-09-07T11:40:42;0.40;;;0.40;;
80981;SDS011;70440;53.064;8.926;2023-09-07T11:43:09;0.45;;;0.45;;
80981;SDS011;70440;53.064;8.926;2023-09-07T11:45:36;0.50;;;0.50;;
80981;SDS011;70440;53.064;8.926;2023-09-07T11:48:04;0.40;;;0.40;;
80981;SDS011;70440;53.064;8.926;2023-09-07T11:50:30;0.50;;;0.50;;
80981;SDS011;70440;53.064;8.926;2023-09-07T11:53:05;0.50;;;0.50;;
80981;SDS011;70440;53.064;8.926;2023-09-07T11:55:31;0.40;;;0.40;;
80981;SDS011;70440;53.064;8.926;2023-09-07T11:57:56;0.50;;;0.50;;
80981;SDS011;70440;53.064;8.926;2023-09-07T12:00:25;0.50;;;0.50;;
80981;SDS011;70440;53.064;8.926;2023-09-07T12:02:51;0.40;;;0.40;;
80981;SDS011;70440;53.064;8.926;2023-09-07T12:05:16;0.40;;;0.40;;
80981;SDS011;70440;53.064;8.926;2023-09-07T12:07:43;0.47;;;0.40;;
80981;SDS011;70440;53.064;8.926;2023-09-07T12:10:11;0.45;;;0.45;;
80981;SDS011;70440;53.064;8.926;2023-09-07T12:12:38;0.40;;;0.40;;
80981;SDS011;70440;53.064;8.926;2023-09-07T12:15:08;0.50;;;0.50;;
80981;SDS011;70440;53.064;8.926;2023-09-07T12:17:33;0.60;;;0.60;;
80981;SDS011;70440;53.064;8.926;2023-09-07T12:19:59;0.35;;;0.35;;
80981;SDS011;70440;53.064;8.926;2023-09-07T12:22:37;0.80;;;0.50;;
80981;SDS011;70440;53.064;8.926;2023-09-07T12:25:04;0.60;;;0.52;;
80981;SDS011;70440;53.064;8.926;2023-09-07T12:27:53;0.77;;;0.40;;
80981;SDS011;70440;53.064;8.926;2023-09-07T12:30:18;0.43;;;0.43;;
80981;SDS011;70440;53.064;8.926;2023-09-07T12:32:48;0.57;;;0.50;;
80981;SDS011;70440;53.064;8.926;2023-09-07T12:35:13;0.40;;;0.40;;
80981;SDS011;70440;53.064;8.926;2023-09-07T12:37:40;0.57;;;0.50;;
80981;SDS011;70440;53.064;8.926;2023-09-07T12:40:05;0.50;;;0.50;;
80981;SDS011;70440;53.064;8.926;2023-09-07T12:42:44;0.43;;;0.43;;
80981;SDS011;70440;53.064;8.926;2023-09-07T12:45:10;0.50;;;0.50;;
80981;SDS011;70440;53.064;8.926;2023-09-07T12:47:36;0.50;;;0.50;;
80981;SDS011;70440;53.064;8.926;2023-09-07T12:50:05;0.50;;;0.50;;
80981;SDS011;70440;53.064;8.926;2023-09-07T12:52:32;0.50;;;0.50;;
80981;SDS011;70440;53.064;8.926;2023-09-07T12:55:00;0.38;;;0.38;;
80981;SDS011;70440;53.064;8.926;2023-09-07T12:57:38;0.30;;;0.30;;
80981;SDS011;70440;53.064;8.926;2023-09-07T13:00:03;0.38;;;0.38;;
80981;SDS011;70440;53.064;8.926;2023-09-07T13:02:30;0.38;;;0.38;;
80981;SDS011;70440;53.064;8.926;2023-09-07T13:04:56;0.50;;;0.50;;
80981;SDS011;70440;53.064;8.926;2023-09-07T13:07:21;0.30;;;0.30;;
80981;SDS011;70440;53.064;8.926;2023-09-07T13:09:47;0.47;;;0.47;;
80981;SDS011;70440;53.064;8.926;2023-09-07T13:12:12;0.40;;;0.40;;
80981;SDS011;70440;53.064;8.926;2023-09-07T13:14:40;0.50;;;0.47;;
80981;SDS011;70440;53.064;8.926;2023-09-07T13:17:06;0.60;;;0.60;;
80981;SDS011;70440;53.064;8.926;2023-09-07T13:19:34;0.60;;;0.60;;
80981;SDS011;70440;53.064;8.926;2023-09-07T13:22:03;0.50;;;0.50;;
80981;SDS011;70440;53.064;8.926;2023-09-07T13:24:37;0.45;;;0.45;;
80981;SDS011;70440;53.064;8.926;2023-09-07T13:27:03;0.60;;;0.60;;
80981;SDS011;70440;53.064;8.926;2023-09-07T13:29:28;0.40;;;0.40;;
80981;SDS011;70440;53.064;8.926;2023-09-07T13:31:54;0.38;;;0.38;;
80981;SDS011;70440;53.064;8.926;2023-09-07T13:34:22;0.60;;;0.60;;
80981;SDS011;70440;53.064;8.926;2023-09-07T13:36:51;0.40;;;0.40;;
80981;SDS011;70440;53.064;8.926;2023-09-07T13:39:16;0.60;;;0.50;;
80981;SDS011;70440;53.064;8.926;2023-09-07T13:41:44;0.43;;;0.43;;
80981;SDS011;70440;53.064;8.926;2023-09-07T13:44:13;0.50;;;0.50;;
80981;SDS011;70440;53.064;8.926;2023-09-07T13:46:39;1.05;;;0.50;;
80981;SDS011;70440;53.064;8.926;2023-09-07T13:49:07;0.40;;;0.40;;
80981;SDS011;70440;53.064;8.926;2023-09-07T13:51:41;0.43;;;0.43;;
80981;SDS011;70440;53.064;8.926;2023-09-07T13:54:07;0.40;;;0.40;;
80981;SDS011;70440;53.064;8.926;2023-09-07T13:56:33;0.60;;;0.60;;
80981;SDS011;70440;53.064;8.926;2023-09-07T13:59:05;0.60;;;0.60;;
80981;SDS011;70440;53.064;8.926;2023-09-07T14:01:30;1.38;;;0.50;;
80981;SDS011;70440;53.064;8.926;2023-09-07T14:03:56;0.65;;;0.60;;
80981;SDS011;70440;53.064;8.926;2023-09-07T14:06:22;0.50;;;0.43;;
80981;SDS011;70440;53.064;8.926;2023-09-07T14:08:51;0.60;;;0.60;;
80981;SDS011;70440;53.064;8.926;2023-09-07T14:11:20;0.40;;;0.40;;
80981;SDS011;70440;53.064;8.926;2023-09-07T14:13:47;0.32;;;0.32;;
80981;SDS011;70440;53.064;8.926;2023-09-07T14:16:16;0.47;;;0.47;;
80981;SDS011;70440;53.064;8.926;2023-09-07T14:18:44;0.50;;;0.50;;
80981;SDS011;70440;53.064;8.926;2023-09-07T14:21:16;0.60;;;0.60;;
80981;SDS011;70440;53.064;8.926;2023-09-07T14:23:42;0.70;;;0.65;;
80981;SDS011;70440;53.064;8.926;2023-09-07T14:26:08;0.70;;;0.60;;
80981;SDS011;70440;53.064;8.926;2023-09-07T14:28:33;0.50;;;0.50;;
80981;SDS011;70440;53.064;8.926;2023-09-07T14:30:59;0.60;;;0.60;;
80981;SDS011;70440;53.064;8.926;2023-09-07T14:33:28;0.45;;;0.45;;
80981;SDS011;70440;53.064;8.926;2023-09-07T14:35:53;0.60;;;0.60;;
80981;SDS011;70440;53.064;8.926;2023-09-07T14:38:20;0.40;;;0.40;;
80981;SDS011;70440;53.064;8.926;2023-09-07T14:40:46;0.40;;;0.40;;
80981;SDS011;70440;53.064;8.926;2023-09-07T14:43:13;0.63;;;0.40;;
80981;SDS011;70440;53.064;8.926;2023-09-07T14:45:39;0.70;;;0.57;;
80981;SDS011;70440;53.064;8.926;2023-09-07T14:48:07;0.60;;;0.60;;
80981;SDS011;70440;53.064;8.926;2023-09-07T14:50:32;0.52;;;0.52;;
80981;SDS011;70440;53.064;8.926;2023-09-07T14:53:01;0.35;;;0.35;;
80981;SDS011;70440;53.064;8.926;2023-09-07T14:55:26;0.50;;;0.50;;
80981;SDS011;70440;53.064;8.926;2023-09-07T14:57:51;0.57;;;0.57;;
80981;SDS011;70440;53.064;8.926;2023-09-07T15:00:17;0.38;;;0.38;;
80981;SDS011;70440;53.064;8.926;2023-09-07T15:02:42;0.60;;;0.60;;
80981;SDS011;70440;53.064;8.926;2023-09-07T15:05:08;0.60;;;0.60;;
80981;SDS011;70440;53.064;8.926;2023-09-07T15:07:33;0.35;;;0.35;;